Stacy Shelby — WDC8962 — position and weather

sailwx.info

Track history (hours):
 
Tides and Currents Weather Stations Pressure Air Temp Water Temp Dewpoint Dewpoint Depression Visibility Wind Speed Wind Dir Waves Ship Positions

Stacy Shelby

Owner: Destin Trading Corporation, harahan, LA. More information available from US FCC via Universal Licensing System and Coast Guard Vessel Documentation Center.

Last reported at 2017-Oct-14 05:28 UTC. Time now 2017-Oct-17 13:05 UTC.
Position N 29°47' W 095°05'.

Length 23 m; draft 3.2 m.

Type: Towing. MMSI: 367095660.

Date/timePositionNaut miles runAvg speedWind from/ knotsBaromVisibWave heightAir tempDewpointWater temp
2017-Oct-14 05:28N 29°47' W 095°05'0 0.0
2017-Oct-14 04:57N 29°47' W 095°05'0 0.0
2017-Oct-14 03:53N 29°47' W 095°05'0 0.0
2017-Oct-14 03:09N 29°47' W 095°05'0 0.0
2017-Oct-12 04:37N 29°47' W 095°05'0 0.0
2017-Oct-12 03:22N 29°47' W 095°05'3 0.1
2017-Oct-10 16:51N 29°44' W 095°03'2 6.0
2017-Oct-10 16:28N 29°43' W 095°01'3 5.6
2017-Oct-10 16:00N 29°41' W 094°59'3 6.4
2017-Oct-10 15:31N 29°38' W 094°58'2 3.9
2017-Oct-10 15:00N 29°37' W 094°59'2 1.9
2017-Oct-10 14:01N 29°37' W 095°01'0 0.0
2017-Oct-10 13:30N 29°37' W 095°01'0 0.0
2017-Oct-10 13:01N 29°37' W 095°01'0 0.0
2017-Oct-10 12:31N 29°37' W 095°01'0 0.0
2017-Oct-10 12:01N 29°37' W 095°01'0 0.0
2017-Oct-10 11:31N 29°37' W 095°01'0 0.0
2017-Oct-10 11:01N 29°37' W 095°01'0 0.0
2017-Oct-10 10:30N 29°37' W 095°01'0 0.0
2017-Oct-10 10:00N 29°37' W 095°01'0 0.0
2017-Oct-10 09:31N 29°37' W 095°01'0 0.0
2017-Oct-10 09:01N 29°37' W 095°01'0 0.0
2017-Oct-10 08:31N 29°37' W 095°01'0 0.0
2017-Oct-10 08:01N 29°37' W 095°01'0 0.0
2017-Oct-10 07:31N 29°37' W 095°01'0 0.0
2017-Oct-10 07:00N 29°37' W 095°01'0 0.0
2017-Oct-10 06:30N 29°37' W 095°01'0 0.0
2017-Oct-10 06:01N 29°37' W 095°01'0 0.0
2017-Oct-10 05:31N 29°37' W 095°01'0 0.0
2017-Oct-10 05:01N 29°37' W 095°01'0 0.0
2017-Oct-10 04:31N 29°37' W 095°01'0 0.0
2017-Oct-10 04:01N 29°37' W 095°01'0 0.0
2017-Oct-10 03:31N 29°37' W 095°01'0 0.0
2017-Oct-10 03:01N 29°37' W 095°01'0 0.0
2017-Oct-10 02:31N 29°37' W 095°01'0 0.0
2017-Oct-10 02:01N 29°37' W 095°01'0 0.0
2017-Oct-10 01:31N 29°37' W 095°01'0 0.0
2017-Oct-10 01:01N 29°37' W 095°01'0 0.0
2017-Oct-10 00:31N 29°37' W 095°01'2 3.6
2017-Oct-10 00:01N 29°37' W 094°59'3 5.7
2017-Oct-09 23:31N 29°40' W 094°58'5 8.0
2017-Oct-09 22:53N 29°44' W 095°02'4 0.1
2017-Oct-08 03:09N 29°46' W 095°05'0 0.0
2017-Oct-08 02:52N 29°46' W 095°05'1 0.1
2017-Oct-07 09:27N 29°47' W 095°04'2 4.3
2017-Oct-07 09:00N 29°45' W 095°06'1 1.7
2017-Oct-07 08:29N 29°45' W 095°06'0 0.0
2017-Oct-07 07:25N 29°45' W 095°06'2 0.0
2017-Oct-05 04:13N 29°44' W 095°08'1 6.6
2017-Oct-05 04:00N 29°44' W 095°09'0 0.1
2017-Oct-04 22:02N 29°44' W 095°10'0 0.0
2017-Oct-04 21:41N 29°44' W 095°10'0 0.0
2017-Oct-04 18:28N 29°44' W 095°10'0 0.0
2017-Oct-04 13:22N 29°44' W 095°10'0 0.0
2017-Oct-04 12:18N 29°44' W 095°10'0 0.0
2017-Oct-04 10:26N 29°44' W 095°10'0 1.0
2017-Oct-04 09:57N 29°44' W 095°09'  
Track history (hours):
 
Tides and Currents Weather Stations Pressure Air Temp Water Temp Dewpoint Dewpoint Depression Visibility Wind Speed Wind Dir Waves Ship Positions

Stacy Shelby

Owner: Destin Trading Corporation, harahan, LA. More information available from US FCC via Universal Licensing System and Coast Guard Vessel Documentation Center.

Last reported at 2017-Oct-14 05:28 UTC. Time now 2017-Oct-17 13:05 UTC.
Position N 29°47' W 095°05'.

Length 23 m; draft 3.2 m.

Type: Towing. MMSI: 367095660.

Date/timePositionNaut miles runAvg speedWind from/ knotsBaromVisibWave heightAir tempDewpointWater temp
2017-Oct-14 05:28N 29°47' W 095°05'0 0.0
2017-Oct-14 04:57N 29°47' W 095°05'0 0.0
2017-Oct-14 03:53N 29°47' W 095°05'0 0.0
2017-Oct-14 03:09N 29°47' W 095°05'0 0.0
2017-Oct-12 04:37N 29°47' W 095°05'0 0.0
2017-Oct-12 03:22N 29°47' W 095°05'3 0.1
2017-Oct-10 16:51N 29°44' W 095°03'2 6.0
2017-Oct-10 16:28N 29°43' W 095°01'3 5.6
2017-Oct-10 16:00N 29°41' W 094°59'3 6.4
2017-Oct-10 15:31N 29°38' W 094°58'2 3.9
2017-Oct-10 15:00N 29°37' W 094°59'2 1.9
2017-Oct-10 14:01N 29°37' W 095°01'0 0.0
2017-Oct-10 13:30N 29°37' W 095°01'0 0.0
2017-Oct-10 13:01N 29°37' W 095°01'0 0.0
2017-Oct-10 12:31N 29°37' W 095°01'0 0.0
2017-Oct-10 12:01N 29°37' W 095°01'0 0.0
2017-Oct-10 11:31N 29°37' W 095°01'0 0.0
2017-Oct-10 11:01N 29°37' W 095°01'0 0.0
2017-Oct-10 10:30N 29°37' W 095°01'0 0.0
2017-Oct-10 10:00N 29°37' W 095°01'0 0.0
2017-Oct-10 09:31N 29°37' W 095°01'0 0.0
2017-Oct-10 09:01N 29°37' W 095°01'0 0.0
2017-Oct-10 08:31N 29°37' W 095°01'0 0.0
2017-Oct-10 08:01N 29°37' W 095°01'0 0.0
2017-Oct-10 07:31N 29°37' W 095°01'0 0.0
2017-Oct-10 07:00N 29°37' W 095°01'0 0.0
2017-Oct-10 06:30N 29°37' W 095°01'0 0.0
2017-Oct-10 06:01N 29°37' W 095°01'0 0.0
2017-Oct-10 05:31N 29°37' W 095°01'0 0.0
2017-Oct-10 05:01N 29°37' W 095°01'0 0.0
2017-Oct-10 04:31N 29°37' W 095°01'0 0.0
2017-Oct-10 04:01N 29°37' W 095°01'0 0.0
2017-Oct-10 03:31N 29°37' W 095°01'0 0.0
2017-Oct-10 03:01N 29°37' W 095°01'0 0.0
2017-Oct-10 02:31N 29°37' W 095°01'0 0.0
2017-Oct-10 02:01N 29°37' W 095°01'0 0.0
2017-Oct-10 01:31N 29°37' W 095°01'0 0.0
2017-Oct-10 01:01N 29°37' W 095°01'0 0.0
2017-Oct-10 00:31N 29°37' W 095°01'2 3.6
2017-Oct-10 00:01N 29°37' W 094°59'3 5.7
2017-Oct-09 23:31N 29°40' W 094°58'5 8.0
2017-Oct-09 22:53N 29°44' W 095°02'4 0.1
2017-Oct-08 03:09N 29°46' W 095°05'0 0.0
2017-Oct-08 02:52N 29°46' W 095°05'1 0.1
2017-Oct-07 09:27N 29°47' W 095°04'2 4.3
2017-Oct-07 09:00N 29°45' W 095°06'1 1.7
2017-Oct-07 08:29N 29°45' W 095°06'0 0.0
2017-Oct-07 07:25N 29°45' W 095°06'2 0.0
2017-Oct-05 04:13N 29°44' W 095°08'1 6.6
2017-Oct-05 04:00N 29°44' W 095°09'0 0.1
2017-Oct-04 22:02N 29°44' W 095°10'0 0.0
2017-Oct-04 21:41N 29°44' W 095°10'0 0.0
2017-Oct-04 18:28N 29°44' W 095°10'0 0.0
2017-Oct-04 13:22N 29°44' W 095°10'0 0.0
2017-Oct-04 12:18N 29°44' W 095°10'0 0.0
2017-Oct-04 10:26N 29°44' W 095°10'0 1.0
2017-Oct-04 09:57N 29°44' W 095°09'  

Dump ship's entire track history